sensor_id;sensor_type;location;lat;lon;timestamp;pressure;altitude;pressure_sealevel;temperature;humidity
20160;BME280;50187;50.492;12.134;2023-03-16T00:01:02;98034.03;;;19.04;31.08
20160;BME280;50187;50.492;12.134;2023-03-16T00:03:47;98034.03;;;19.04;31.30
20160;BME280;50187;50.492;12.134;2023-03-16T00:06:32;98037.69;;;19.03;31.29
20160;BME280;50187;50.492;12.134;2023-03-16T00:09:17;98044.94;;;19.03;31.20
20160;BME280;50187;50.492;12.134;2023-03-16T00:12:02;98045.78;;;19.03;31.10
20160;BME280;50187;50.492;12.134;2023-03-16T00:14:48;98046.66;;;19.04;31.24
20160;BME280;50187;50.492;12.134;2023-03-16T00:17:33;98039.41;;;19.04;31.23
20160;BME280;50187;50.492;12.134;2023-03-16T00:20:18;98036.56;;;19.06;31.16
20160;BME280;50187;50.492;12.134;2023-03-16T00:23:04;98032.31;;;19.03;31.23
20160;BME280;50187;50.492;12.134;2023-03-16T00:25:49;98042.09;;;19.04;31.11
20160;BME280;50187;50.492;12.134;2023-03-16T00:28:38;98035.00;;;19.03;31.01
20160;BME280;50187;50.492;12.134;2023-03-16T00:31:22;98034.03;;;19.04;31.18
20160;BME280;50187;50.492;12.134;2023-03-16T00:34:10;98041.41;;;19.02;31.12
20160;BME280;50187;50.492;12.134;2023-03-16T00:36:55;98037.59;;;19.05;30.99
20160;BME280;50187;50.492;12.134;2023-03-16T00:39:41;98034.88;;;19.05;30.86
20160;BME280;50187;50.492;12.134;2023-03-16T00:42:29;98062.84;;;19.04;31.05
20160;BME280;50187;50.492;12.134;2023-03-16T00:45:16;98049.34;;;19.04;30.98
20160;BME280;50187;50.492;12.134;2023-03-16T00:48:01;98044.81;;;19.04;31.09
20160;BME280;50187;50.492;12.134;2023-03-16T00:50:46;98039.41;;;19.04;30.96
20160;BME280;50187;50.492;12.134;2023-03-16T00:53:32;98048.47;;;19.03;31.06
20160;BME280;50187;50.492;12.134;2023-03-16T00:56:18;98049.34;;;19.04;31.06
20160;BME280;50187;50.492;12.134;2023-03-16T00:59:03;98049.50;;;19.02;30.92
20160;BME280;50187;50.492;12.134;2023-03-16T01:01:49;98054.75;;;19.04;31.03
20160;BME280;50187;50.492;12.134;2023-03-16T01:04:35;98042.25;;;19.03;30.82
20160;BME280;50187;50.492;12.134;2023-03-16T01:07:20;98045.94;;;19.02;30.89
20160;BME280;50187;50.492;12.134;2023-03-16T01:10:07;98048.47;;;19.03;30.88
20160;BME280;50187;50.492;12.134;2023-03-16T01:12:52;98058.44;;;19.03;30.93
20160;BME280;50187;50.492;12.134;2023-03-16T01:15:39;98066.38;;;19.04;30.91
20160;BME280;50187;50.492;12.134;2023-03-16T01:18:26;98053.03;;;19.03;31.05
20160;BME280;50187;50.492;12.134;2023-03-16T01:21:11;98056.72;;;19.02;30.89
20160;BME280;50187;50.492;12.134;2023-03-16T01:23:58;98049.66;;;19.01;30.92
20160;BME280;50187;50.492;12.134;2023-03-16T01:26:43;98051.19;;;19.03;30.86
20160;BME280;50187;50.492;12.134;2023-03-16T01:29:29;98047.66;;;19.03;30.78
20160;BME280;50187;50.492;12.134;2023-03-16T01:32:16;98048.63;;;19.02;30.85
20160;BME280;50187;50.492;12.134;2023-03-16T01:35:01;98054.03;;;19.02;30.88
20160;BME280;50187;50.492;12.134;2023-03-16T01:37:46;98052.06;;;19.04;30.97
20160;BME280;50187;50.492;12.134;2023-03-16T01:40:34;98049.66;;;19.01;30.87
20160;BME280;50187;50.492;12.134;2023-03-16T01:43:21;98053.19;;;19.01;30.88
20160;BME280;50187;50.492;12.134;2023-03-16T01:54:54;98045.38;;;19.08;30.83
20160;BME280;50187;50.492;12.134;2023-03-16T01:57:44;98040.13;;;19.07;30.56
20160;BME280;50187;50.492;12.134;2023-03-16T02:00:31;98044.50;;;19.08;30.61
20160;BME280;50187;50.492;12.134;2023-03-16T02:03:24;98033.88;;;19.06;30.79
20160;BME280;50187;50.492;12.134;2023-03-16T02:06:17;98038.84;;;19.11;30.70
20160;BME280;50187;50.492;12.134;2023-03-16T02:09:08;98030.88;;;19.09;30.65
20160;BME280;50187;50.492;12.134;2023-03-16T02:11:53;98035.28;;;19.10;30.65
20160;BME280;50187;50.492;12.134;2023-03-16T02:14:41;98033.47;;;19.11;30.59
20160;BME280;50187;50.492;12.134;2023-03-16T02:17:28;98031.59;;;19.11;30.64
20160;BME280;50187;50.492;12.134;2023-03-16T02:20:51;98023.50;;;19.11;30.72
20160;BME280;50187;50.492;12.134;2023-03-16T02:23:40;98027.63;;;19.15;30.46
20160;BME280;50187;50.492;12.134;2023-03-16T02:26:48;98031.31;;;19.14;30.56
20160;BME280;50187;50.492;12.134;2023-03-16T02:32:37;98044.09;;;19.12;30.49
20160;BME280;50187;50.492;12.134;2023-03-16T02:35:24;98033.31;;;19.12;30.57
20160;BME280;50187;50.492;12.134;2023-03-16T02:38:10;98042.09;;;19.14;30.56
20160;BME280;50187;50.492;12.134;2023-03-16T02:41:10;98042.09;;;19.14;30.60
20160;BME280;50187;50.492;12.134;2023-03-16T02:44:02;98041.09;;;19.15;30.65
20160;BME280;50187;50.492;12.134;2023-03-16T02:46:56;98034.00;;;19.14;30.59
20160;BME280;50187;50.492;12.134;2023-03-16T02:49:44;98038.56;;;19.14;30.42
20160;BME280;50187;50.492;12.134;2023-03-16T02:52:29;98033.03;;;19.15;30.52
20160;BME280;50187;50.492;12.134;2023-03-16T02:55:14;98030.31;;;19.15;30.64
20160;BME280;50187;50.492;12.134;2023-03-16T02:58:03;98035.84;;;19.14;30.45
20160;BME280;50187;50.492;12.134;2023-03-16T03:00:48;98043.09;;;19.13;30.50
20160;BME280;50187;50.492;12.134;2023-03-16T03:03:35;98033.84;;;19.16;30.40
20160;BME280;50187;50.492;12.134;2023-03-16T03:06:22;98040.13;;;19.16;30.41
20160;BME280;50187;50.492;12.134;2023-03-16T03:09:09;98038.56;;;19.14;30.55
20160;BME280;50187;50.492;12.134;2023-03-16T03:11:58;98041.41;;;19.12;30.44
20160;BME280;50187;50.492;12.134;2023-03-16T03:14:44;98038.56;;;19.14;30.55
20160;BME280;50187;50.492;12.134;2023-03-16T03:17:32;98050.03;;;19.16;30.51
20160;BME280;50187;50.492;12.134;2023-03-16T03:20:18;98042.81;;;19.16;30.39
20160;BME280;50187;50.492;12.134;2023-03-16T03:23:03;98049.06;;;19.17;30.48
20160;BME280;50187;50.492;12.134;2023-03-16T03:25:49;98048.06;;;19.18;30.32
20160;BME280;50187;50.492;12.134;2023-03-16T03:28:35;98024.66;;;19.09;30.40
20160;BME280;50187;50.492;12.134;2023-03-16T03:31:21;98046.78;;;19.12;30.47
20160;BME280;50187;50.492;12.134;2023-03-16T03:34:08;98045.09;;;19.11;30.39
20160;BME280;50187;50.492;12.134;2023-03-16T03:36:54;98064.94;;;19.10;30.35
20160;BME280;50187;50.492;12.134;2023-03-16T03:39:39;98064.25;;;19.08;30.49
20160;BME280;50187;50.492;12.134;2023-03-16T03:42:25;98061.56;;;19.08;30.44
20160;BME280;50187;50.492;12.134;2023-03-16T03:45:11;98062.25;;;19.10;30.25
20160;BME280;50187;50.492;12.134;2023-03-16T03:47:57;98057.16;;;19.07;30.42
20160;BME280;50187;50.492;12.134;2023-03-16T03:50:43;98057.16;;;19.07;30.40
20160;BME280;50187;50.492;12.134;2023-03-16T03:53:54;98068.50;;;19.11;30.36
20160;BME280;50187;50.492;12.134;2023-03-16T03:56:58;98053.31;;;19.10;30.38
20160;BME280;50187;50.492;12.134;2023-03-16T03:59:44;98048.78;;;19.10;30.37
20160;BME280;50187;50.492;12.134;2023-03-16T04:02:32;98043.53;;;19.09;30.53
20160;BME280;50187;50.492;12.134;2023-03-16T04:05:17;98041.13;;;19.05;30.46
20160;BME280;50187;50.492;12.134;2023-03-16T04:08:03;98045.38;;;19.08;30.44
20160;BME280;50187;50.492;12.134;2023-03-16T04:10:48;98041.97;;;19.06;30.39
20160;BME280;50187;50.492;12.134;2023-03-16T04:13:34;98038.13;;;19.09;30.41
20160;BME280;50187;50.492;12.134;2023-03-16T04:16:19;98038.97;;;19.09;30.28
20160;BME280;50187;50.492;12.134;2023-03-16T04:19:10;98036.28;;;19.09;30.43
20160;BME280;50187;50.492;12.134;2023-03-16T04:21:55;98029.19;;;19.08;30.35
20160;BME280;50187;50.492;12.134;2023-03-16T04:24:41;98042.53;;;19.10;30.43
20160;BME280;50187;50.492;12.134;2023-03-16T04:27:28;98034.31;;;19.11;30.40
20160;BME280;50187;50.492;12.134;2023-03-16T04:30:15;98036.28;;;19.09;30.36
20160;BME280;50187;50.492;12.134;2023-03-16T04:33:05;98032.59;;;19.10;30.37
20160;BME280;50187;50.492;12.134;2023-03-16T04:35:51;98027.19;;;19.10;30.40
20160;BME280;50187;50.492;12.134;2023-03-16T04:38:39;98032.59;;;19.10;30.16
20160;BME280;50187;50.492;12.134;2023-03-16T04:41:26;98029.44;;;19.15;30.27
20160;BME280;50187;50.492;12.134;2023-03-16T04:44:17;98035.72;;;19.15;30.21
20160;BME280;50187;50.492;12.134;2023-03-16T04:47:02;98018.97;;;19.12;30.11
20160;BME280;50187;50.492;12.134;2023-03-16T04:49:53;98032.03;;;19.16;30.06
20160;BME280;50187;50.492;12.134;2023-03-16T04:52:43;98029.19;;;19.18;30.29
20160;BME280;50187;50.492;12.134;2023-03-16T04:55:29;98035.56;;;19.17;30.07
20160;BME280;50187;50.492;12.134;2023-03-16T04:58:15;98022.91;;;19.17;30.27
20160;BME280;50187;50.492;12.134;2023-03-16T05:01:00;98028.03;;;19.20;30.12
20160;BME280;50187;50.492;12.134;2023-03-16T05:03:48;98029.44;;;19.25;30.15
20160;BME280;50187;50.492;12.134;2023-03-16T05:06:35;98024.63;;;19.28;30.06
20160;BME280;50187;50.492;12.134;2023-03-16T05:09:20;98021.63;;;19.31;29.95
20160;BME280;50187;50.492;12.134;2023-03-16T05:12:05;98024.88;;;19.35;30.13
20160;BME280;50187;50.492;12.134;2023-03-16T05:14:52;98023.59;;;19.39;29.98
20160;BME280;50187;50.492;12.134;2023-03-16T05:17:42;98025.28;;;19.40;29.80
20160;BME280;50187;50.492;12.134;2023-03-16T05:20:30;98024.00;;;19.44;29.76
20160;BME280;50187;50.492;12.134;2023-03-16T05:23:19;98016.63;;;19.46;29.90
20160;BME280;50187;50.492;12.134;2023-03-16T05:26:10;98013.50;;;19.41;29.85
20160;BME280;50187;50.492;12.134;2023-03-16T05:28:58;98016.47;;;19.48;29.82
20160;BME280;50187;50.492;12.134;2023-03-16T05:31:46;98011.75;;;19.50;29.79
20160;BME280;50187;50.492;12.134;2023-03-16T05:34:37;98018.03;;;19.50;29.68
20160;BME280;50187;50.492;12.134;2023-03-16T05:37:23;98026.13;;;19.50;29.75
20160;BME280;50187;50.492;12.134;2023-03-16T05:40:11;98017.16;;;19.50;29.81
20160;BME280;50187;50.492;12.134;2023-03-16T05:43:05;98024.94;;;19.53;29.80
20160;BME280;50187;50.492;12.134;2023-03-16T05:45:56;98021.00;;;19.47;29.83
20160;BME280;50187;50.492;12.134;2023-03-16T05:48:42;98027.78;;;19.51;29.82
20160;BME280;50187;50.492;12.134;2023-03-16T05:51:30;98026.13;;;19.50;29.70
20160;BME280;50187;50.492;12.134;2023-03-16T05:54:19;98032.19;;;19.52;29.75
20160;BME280;50187;50.492;12.134;2023-03-16T05:57:05;98040.59;;;19.49;29.71
20160;BME280;50187;50.492;12.134;2023-03-16T05:59:51;98037.59;;;19.52;29.64
20160;BME280;50187;50.492;12.134;2023-03-16T06:02:43;98037.59;;;19.52;29.74
20160;BME280;50187;50.492;12.134;2023-03-16T06:05:28;98036.75;;;19.52;29.68
20160;BME280;50187;50.492;12.134;2023-03-16T06:08:14;98034.22;;;19.50;29.82
20160;BME280;50187;50.492;12.134;2023-03-16T06:11:03;98027.66;;;19.53;29.65
20160;BME280;50187;50.492;12.134;2023-03-16T06:13:49;98046.25;;;19.56;29.63
20160;BME280;50187;50.492;12.134;2023-03-16T06:16:34;98038.59;;;19.51;29.79
20160;BME280;50187;50.492;12.134;2023-03-16T06:19:20;98048.41;;;19.52;29.69
20160;BME280;50187;50.492;12.134;2023-03-16T06:22:10;98046.97;;;19.58;29.58
20160;BME280;50187;50.492;12.134;2023-03-16T06:24:56;98044.41;;;19.56;29.68
20160;BME280;50187;50.492;12.134;2023-03-16T06:27:42;98051.66;;;19.56;29.62
20160;BME280;50187;50.492;12.134;2023-03-16T06:30:31;98058.59;;;19.59;29.64
20160;BME280;50187;50.492;12.134;2023-03-16T06:33:16;98055.78;;;19.60;29.64
20160;BME280;50187;50.492;12.134;2023-03-16T06:36:02;98067.41;;;19.61;29.71
20160;BME280;50187;50.492;12.134;2023-03-16T06:38:54;98065.69;;;19.60;29.68
20160;BME280;50187;50.492;12.134;2023-03-16T06:41:48;98061.72;;;19.64;29.54
20160;BME280;50187;50.492;12.134;2023-03-16T06:44:34;98081.75;;;19.61;29.76
20160;BME280;50187;50.492;12.134;2023-03-16T06:47:25;98070.09;;;19.61;29.77
20160;BME280;50187;50.492;12.134;2023-03-16T06:50:10;98056.31;;;19.64;29.56
20160;BME280;50187;50.492;12.134;2023-03-16T06:52:57;98054.34;;;19.66;29.76
20160;BME280;50187;50.492;12.134;2023-03-16T06:55:42;98067.09;;;19.64;29.83
20160;BME280;50187;50.492;12.134;2023-03-16T06:58:28;98063.41;;;19.65;29.80
20160;BME280;50187;50.492;12.134;2023-03-16T07:01:13;98068.81;;;19.65;29.70
20160;BME280;50187;50.492;12.134;2023-03-16T07:03:58;98073.91;;;19.68;29.73
20160;BME280;50187;50.492;12.134;2023-03-16T07:06:47;98067.09;;;19.64;29.71
20160;BME280;50187;50.492;12.134;2023-03-16T07:09:34;98072.91;;;19.69;29.89
20160;BME280;50187;50.492;12.134;2023-03-16T07:12:23;98065.38;;;19.72;29.73
20160;BME280;50187;50.492;12.134;2023-03-16T07:15:10;98062.66;;;19.72;29.76
20160;BME280;50187;50.492;12.134;2023-03-16T07:17:56;98076.31;;;19.71;29.68
20160;BME280;50187;50.492;12.134;2023-03-16T07:20:42;98069.09;;;19.71;29.61
20160;BME280;50187;50.492;12.134;2023-03-16T07:23:27;98067.91;;;19.74;29.88
20160;BME280;50187;50.492;12.134;2023-03-16T07:26:19;98067.66;;;19.77;29.80
20160;BME280;50187;50.492;12.134;2023-03-16T07:29:10;98062.50;;;19.74;29.68
20160;BME280;50187;50.492;12.134;2023-03-16T07:31:56;98063.22;;;19.76;29.80
20160;BME280;50187;50.492;12.134;2023-03-16T07:34:49;98062.97;;;19.79;29.77
20160;BME280;50187;50.492;12.134;2023-03-16T07:37:34;98059.28;;;19.80;29.71
20160;BME280;50187;50.492;12.134;2023-03-16T07:40:22;98064.66;;;19.80;29.85
20160;BME280;50187;50.492;12.134;2023-03-16T07:43:08;98055.69;;;19.80;29.80
20160;BME280;50187;50.492;12.134;2023-03-16T07:46:02;98057.97;;;19.84;29.73
20160;BME280;50187;50.492;12.134;2023-03-16T07:48:48;98053.28;;;19.86;29.79
20160;BME280;50187;50.492;12.134;2023-03-16T07:51:33;98050.88;;;19.83;29.71
20160;BME280;50187;50.492;12.134;2023-03-16T07:54:19;98055.28;;;19.84;29.77
20160;BME280;50187;50.492;12.134;2023-03-16T07:57:05;98060.22;;;19.89;29.79
20160;BME280;50187;50.492;12.134;2023-03-16T07:59:55;98059.38;;;19.88;29.73
20160;BME280;50187;50.492;12.134;2023-03-16T08:02:43;98062.78;;;19.90;29.89
20160;BME280;50187;50.492;12.134;2023-03-16T08:05:30;98064.47;;;19.92;29.69
20160;BME280;50187;50.492;12.134;2023-03-16T08:08:23;98059.50;;;19.97;29.68
20160;BME280;50187;50.492;12.134;2023-03-16T08:11:09;98059.88;;;20.02;29.76
20160;BME280;50187;50.492;12.134;2023-03-16T08:14:04;98061.59;;;20.03;29.72
20160;BME280;50187;50.492;12.134;2023-03-16T08:17:10;98060.59;;;20.04;29.75
20160;BME280;50187;50.492;12.134;2023-03-16T08:19:56;98057.44;;;20.08;29.61
20160;BME280;50187;50.492;12.134;2023-03-16T08:22:42;98069.50;;;20.14;29.67
20160;BME280;50187;50.492;12.134;2023-03-16T08:25:32;98066.47;;;20.17;29.67
20160;BME280;50187;50.492;12.134;2023-03-16T08:28:24;98070.59;;;20.21;29.59
20160;BME280;50187;50.492;12.134;2023-03-16T08:31:13;98066.28;;;20.29;29.42
20160;BME280;50187;50.492;12.134;2023-03-16T08:34:08;98066.44;;;20.27;29.44
20160;BME280;50187;50.492;12.134;2023-03-16T08:36:58;98069.69;;;20.31;29.42
20160;BME280;50187;50.492;12.134;2023-03-16T08:39:44;98067.38;;;20.36;29.51
20160;BME280;50187;50.492;12.134;2023-03-16T08:42:32;98065.22;;;20.39;29.34
20160;BME280;50187;50.492;12.134;2023-03-16T08:45:20;98076.72;;;20.41;29.38
20160;BME280;50187;50.492;12.134;2023-03-16T08:48:07;98068.47;;;20.43;29.43
20160;BME280;50187;50.492;12.134;2023-03-16T08:50:56;98076.56;;;20.43;29.42
20160;BME280;50187;50.492;12.134;2023-03-16T08:53:42;98080.81;;;20.46;29.44
20160;BME280;50187;50.492;12.134;2023-03-16T08:56:27;98076.13;;;20.48;29.30
20160;BME280;50187;50.492;12.134;2023-03-16T08:59:14;98075.25;;;20.47;29.34
20160;BME280;50187;50.492;12.134;2023-03-16T09:02:13;98068.19;;;20.46;29.38
20160;BME280;50187;50.492;12.134;2023-03-16T09:04:58;98067.47;;;20.44;29.51
20160;BME280;50187;50.492;12.134;2023-03-16T09:07:43;98069.47;;;20.42;29.54
20160;BME280;50187;50.492;12.134;2023-03-16T09:10:33;98068.47;;;20.43;29.42
20160;BME280;50187;50.492;12.134;2023-03-16T09:13:17;98066.94;;;20.40;29.60
20160;BME280;50187;50.492;12.134;2023-03-16T09:16:04;98076.88;;;20.40;29.32
20160;BME280;50187;50.492;12.134;2023-03-16T09:18:51;98066.28;;;20.29;29.68
20160;BME280;50187;50.492;12.134;2023-03-16T09:21:36;98073.91;;;20.33;29.54
20160;BME280;50187;50.492;12.134;2023-03-16T09:24:21;98073.91;;;20.33;29.68
20160;BME280;50187;50.492;12.134;2023-03-16T09:27:06;98073.38;;;20.30;29.76
20160;BME280;50187;50.492;12.134;2023-03-16T09:29:52;98082.63;;;20.27;29.89
20160;BME280;50187;50.492;12.134;2023-03-16T09:32:40;98074.84;;;20.24;29.87
20160;BME280;50187;50.492;12.134;2023-03-16T09:35:25;98065.19;;;20.21;29.89
20160;BME280;50187;50.492;12.134;2023-03-16T09:38:11;98077.69;;;20.22;29.69
20160;BME280;50187;50.492;12.134;2023-03-16T09:40:59;98080.00;;;20.17;29.91
20160;BME280;50187;50.492;12.134;2023-03-16T09:46:50;98076.94;;;20.30;29.79
20160;BME280;50187;50.492;12.134;2023-03-16T09:49:41;98068.25;;;20.36;29.64
20160;BME280;50187;50.492;12.134;2023-03-16T09:52:48;98072.34;;;20.40;29.76
20160;BME280;50187;50.492;12.134;2023-03-16T09:55:38;98078.44;;;20.42;29.62
20160;BME280;50187;50.492;12.134;2023-03-16T09:58:23;98071.16;;;20.43;29.76
20160;BME280;50187;50.492;12.134;2023-03-16T10:01:34;98077.28;;;20.45;29.71
20160;BME280;50187;50.492;12.134;2023-03-16T10:07:51;98078.38;;;20.52;29.57
20160;BME280;50187;50.492;12.134;2023-03-16T10:14:16;98070.72;;;20.48;29.65
20160;BME280;50187;50.492;12.134;2023-03-16T10:17:12;98067.56;;;20.52;29.63
20160;BME280;50187;50.492;12.134;2023-03-16T10:20:02;98074.50;;;20.55;29.47
20160;BME280;50187;50.492;12.134;2023-03-16T10:22:51;98077.75;;;20.58;29.57
20160;BME280;50187;50.492;12.134;2023-03-16T10:25:46;98070.34;;;20.61;29.71
20160;BME280;50187;50.492;12.134;2023-03-16T10:28:32;98065.94;;;20.59;29.46
20160;BME280;50187;50.492;12.134;2023-03-16T10:31:20;98065.78;;;20.61;29.41
20160;BME280;50187;50.492;12.134;2023-03-16T10:34:07;98066.78;;;20.60;29.38
20160;BME280;50187;50.492;12.134;2023-03-16T10:36:54;98064.63;;;20.64;29.57
20160;BME280;50187;50.492;12.134;2023-03-16T10:39:39;98059.22;;;20.64;29.57
20160;BME280;50187;50.492;12.134;2023-03-16T10:42:27;98050.69;;;20.68;29.41
20160;BME280;50187;50.492;12.134;2023-03-16T10:45:27;98041.41;;;20.71;29.33
20160;BME280;50187;50.492;12.134;2023-03-16T10:48:16;98035.00;;;20.72;29.27
20160;BME280;50187;50.492;12.134;2023-03-16T10:51:14;98035.31;;;20.69;29.37
20160;BME280;50187;50.492;12.134;2023-03-16T10:54:07;98037.56;;;20.73;29.49
20160;BME280;50187;50.492;12.134;2023-03-16T10:56:56;98035.69;;;20.74;29.32
20160;BME280;50187;50.492;12.134;2023-03-16T10:59:47;98031.00;;;20.76;29.51
20160;BME280;50187;50.492;12.134;2023-03-16T11:02:33;98027.06;;;20.70;29.24
20160;BME280;50187;50.492;12.134;2023-03-16T11:05:32;98029.59;;;20.72;29.58
20160;BME280;50187;50.492;12.134;2023-03-16T11:08:23;98025.34;;;20.69;29.40
20160;BME280;50187;50.492;12.134;2023-03-16T11:11:13;98037.00;;;20.70;29.48
20160;BME280;50187;50.492;12.134;2023-03-16T11:14:03;98036.00;;;20.71;29.35
20160;BME280;50187;50.492;12.134;2023-03-16T11:17:02;98030.59;;;20.71;29.42
20160;BME280;50187;50.492;12.134;2023-03-16T11:19:57;98029.28;;;20.75;29.38
20160;BME280;50187;50.492;12.134;2023-03-16T11:22:45;98029.13;;;20.76;29.48
20160;BME280;50187;50.492;12.134;2023-03-16T11:25:37;98021.03;;;20.76;29.17
20160;BME280;50187;50.492;12.134;2023-03-16T11:28:46;98025.59;;;20.76;29.37
20160;BME280;50187;50.492;12.134;2023-03-16T11:31:42;98021.84;;;20.77;29.42
20160;BME280;50187;50.492;12.134;2023-03-16T11:34:33;98014.63;;;20.78;29.33
20160;BME280;50187;50.492;12.134;2023-03-16T11:43:47;98007.34;;;20.78;29.09
20160;BME280;50187;50.492;12.134;2023-03-16T11:46:41;97996.00;;;20.74;29.10
20160;BME280;50187;50.492;12.134;2023-03-16T11:49:39;98007.34;;;20.78;29.25
20160;BME280;50187;50.492;12.134;2023-03-16T11:52:34;98005.63;;;20.77;29.05
20160;BME280;50187;50.492;12.134;2023-03-16T12:14:11;97971.84;;;20.73;29.18
20160;BME280;50187;50.492;12.134;2023-03-16T12:17:02;97963.72;;;20.73;29.40
20160;BME280;50187;50.492;12.134;2023-03-16T12:20:02;97957.78;;;20.69;29.34
20160;BME280;50187;50.492;12.134;2023-03-16T12:23:01;97949.81;;;20.68;29.19
20160;BME280;50187;50.492;12.134;2023-03-16T12:25:49;97952.53;;;20.68;29.52
20160;BME280;50187;50.492;12.134;2023-03-16T12:28:35;97942.56;;;20.68;29.18
20160;BME280;50187;50.492;12.134;2023-03-16T12:31:29;97937.44;;;20.65;29.44
20160;BME280;50187;50.492;12.134;2023-03-16T12:34:40;97934.72;;;20.65;29.38
20160;BME280;50187;50.492;12.134;2023-03-16T12:40:33;97932.50;;;20.61;29.25
20160;BME280;50187;50.492;12.134;2023-03-16T12:43:45;97927.09;;;20.61;29.21
20160;BME280;50187;50.492;12.134;2023-03-16T12:46:54;97926.38;;;20.58;29.26
20160;BME280;50187;50.492;12.134;2023-03-16T12:49:41;97927.41;;;20.57;29.24
20160;BME280;50187;50.492;12.134;2023-03-16T12:52:38;97915.66;;;20.49;29.42
20160;BME280;50187;50.492;12.134;2023-03-16T12:58:18;97918.84;;;20.44;29.55
20160;BME280;50187;50.492;12.134;2023-03-16T13:01:07;97920.88;;;20.42;29.47
20160;BME280;50187;50.492;12.134;2023-03-16T13:04:00;97909.19;;;20.41;29.53
20160;BME280;50187;50.492;12.134;2023-03-16T13:06:50;97902.41;;;20.37;29.62
20160;BME280;50187;50.492;12.134;2023-03-16T13:10:01;97898.19;;;20.35;29.53
20160;BME280;50187;50.492;12.134;2023-03-16T13:12:48;97894.00;;;20.22;29.81
20160;BME280;50187;50.492;12.134;2023-03-16T13:15:36;97889.22;;;20.16;29.96
20160;BME280;50187;50.492;12.134;2023-03-16T13:18:23;97888.38;;;20.16;29.86
20160;BME280;50187;50.492;12.134;2023-03-16T13:24:38;97889.53;;;20.13;29.96
20160;BME280;50187;50.492;12.134;2023-03-16T13:27:31;97885.44;;;20.09;29.75
20160;BME280;50187;50.492;12.134;2023-03-16T13:30:29;97885.91;;;20.04;30.11
20160;BME280;50187;50.492;12.134;2023-03-16T13:33:20;97882.81;;;19.99;30.22
20160;BME280;50187;50.492;12.134;2023-03-16T13:36:09;97873.19;;;19.97;30.21
20160;BME280;50187;50.492;12.134;2023-03-16T13:39:34;97876.03;;;19.95;30.28
20160;BME280;50187;50.492;12.134;2023-03-16T13:42:21;97875.50;;;19.92;30.16
20160;BME280;50187;50.492;12.134;2023-03-16T13:45:13;97876.97;;;19.86;30.31
20160;BME280;50187;50.492;12.134;2023-03-16T13:47:59;97879.81;;;19.84;30.42
20160;BME280;50187;50.492;12.134;2023-03-16T13:50:53;97875.41;;;19.83;30.31
20160;BME280;50187;50.492;12.134;2023-03-16T13:53:41;97880.97;;;19.82;30.44
20160;BME280;50187;50.492;12.134;2023-03-16T13:56:27;97860.78;;;19.76;30.23
20160;BME280;50187;50.492;12.134;2023-03-16T13:59:15;97872.91;;;19.72;30.48
20160;BME280;50187;50.492;12.134;2023-03-16T14:02:02;97864.78;;;19.72;30.42
20160;BME280;50187;50.492;12.134;2023-03-16T14:04:47;97872.91;;;19.72;30.52
20160;BME280;50187;50.492;12.134;2023-03-16T14:07:36;97866.81;;;19.70;30.40
20160;BME280;50187;50.492;12.134;2023-03-16T14:10:26;97870.50;;;19.69;30.50
20160;BME280;50187;50.492;12.134;2023-03-16T14:16:18;97850.91;;;19.67;30.47
20160;BME280;50187;50.492;12.134;2023-03-16T14:19:07;97851.78;;;19.67;30.35
20160;BME280;50187;50.492;12.134;2023-03-16T14:22:01;97844.09;;;19.63;30.45
20160;BME280;50187;50.492;12.134;2023-03-16T14:24:55;97854.91;;;19.63;30.69
20160;BME280;50187;50.492;12.134;2023-03-16T14:27:44;97855.06;;;19.61;30.69
20160;BME280;50187;50.492;12.134;2023-03-16T14:30:30;97841.56;;;19.61;30.48
20160;BME280;50187;50.492;12.134;2023-03-16T14:33:36;97840.56;;;19.62;30.54
20160;BME280;50187;50.492;12.134;2023-03-16T14:36:33;97839.59;;;19.63;30.32
20160;BME280;50187;50.492;12.134;2023-03-16T14:39:20;97832.94;;;19.58;30.63
20160;BME280;50187;50.492;12.134;2023-03-16T14:42:13;97825.69;;;19.58;30.53
20160;BME280;50187;50.492;12.134;2023-03-16T14:45:01;97820.28;;;19.58;30.51
20160;BME280;50187;50.492;12.134;2023-03-16T14:47:49;97817.44;;;19.60;30.52
20160;BME280;50187;50.492;12.134;2023-03-16T14:50:35;97810.34;;;19.59;30.36
20160;BME280;50187;50.492;12.134;2023-03-16T14:53:21;97809.81;;;19.55;30.60
20160;BME280;50187;50.492;12.134;2023-03-16T14:56:11;97800.16;;;19.52;30.69
20160;BME280;50187;50.492;12.134;2023-03-16T14:59:00;97804.94;;;19.59;30.60
20160;BME280;50187;50.492;12.134;2023-03-16T15:01:46;97801.56;;;19.56;30.46
20160;BME280;50187;50.492;12.134;2023-03-16T15:04:33;97801.56;;;19.56;30.35
20160;BME280;50187;50.492;12.134;2023-03-16T15:07:24;97778.88;;;19.49;30.63
20160;BME280;50187;50.492;12.134;2023-03-16T15:10:22;97787.50;;;19.53;30.37
20160;BME280;50187;50.492;12.134;2023-03-16T15:13:17;97777.44;;;19.55;30.41
20160;BME280;50187;50.492;12.134;2023-03-16T15:16:19;97779.13;;;19.56;30.55
20160;BME280;50187;50.492;12.134;2023-03-16T15:19:06;97778.06;;;19.49;30.35
20160;BME280;50187;50.492;12.134;2023-03-16T15:21:51;97777.50;;;19.45;30.51
20160;BME280;50187;50.492;12.134;2023-03-16T15:24:36;97781.44;;;19.51;30.50
20160;BME280;50187;50.492;12.134;2023-03-16T15:27:24;97781.59;;;19.49;30.40
20160;BME280;50187;50.492;12.134;2023-03-16T15:30:16;97787.66;;;19.51;30.40
20160;BME280;50187;50.492;12.134;2023-03-16T15:33:02;97783.44;;;19.49;30.40
20160;BME280;50187;50.492;12.134;2023-03-16T15:35:49;97789.69;;;19.49;30.42
20160;BME280;50187;50.492;12.134;2023-03-16T15:38:37;97789.69;;;19.49;30.56
20160;BME280;50187;50.492;12.134;2023-03-16T15:41:24;97784.28;;;19.49;30.52
20160;BME280;50187;50.492;12.134;2023-03-16T15:44:16;97782.59;;;19.48;30.38